sensor_id;sensor_type;location;lat;lon;timestamp;P1;durP1;ratioP1;P2;durP2;ratioP2
23001;SDS011;11667;51.706;4.856;2023-03-08T00:01:49;45.55;;;19.80;;
23001;SDS011;11667;51.706;4.856;2023-03-08T00:04:19;31.20;;;15.23;;
23001;SDS011;11667;51.706;4.856;2023-03-08T00:06:48;33.33;;;14.30;;
23001;SDS011;11667;51.706;4.856;2023-03-08T00:09:18;37.55;;;15.58;;
23001;SDS011;11667;51.706;4.856;2023-03-08T00:11:47;33.58;;;16.15;;
23001;SDS011;11667;51.706;4.856;2023-03-08T00:14:16;37.20;;;15.70;;
23001;SDS011;11667;51.706;4.856;2023-03-08T00:16:47;38.70;;;16.17;;
23001;SDS011;11667;51.706;4.856;2023-03-08T00:19:16;37.58;;;15.95;;
23001;SDS011;11667;51.706;4.856;2023-03-08T00:21:46;41.48;;;17.45;;
23001;SDS011;11667;51.706;4.856;2023-03-08T00:24:15;44.03;;;17.52;;
23001;SDS011;11667;51.706;4.856;2023-03-08T00:26:46;42.67;;;18.67;;
23001;SDS011;11667;51.706;4.856;2023-03-08T00:29:15;42.70;;;19.15;;
23001;SDS011;11667;51.706;4.856;2023-03-08T00:31:45;46.08;;;19.87;;
23001;SDS011;11667;51.706;4.856;2023-03-08T00:34:14;45.80;;;19.90;;
23001;SDS011;11667;51.706;4.856;2023-03-08T00:36:44;48.70;;;20.90;;
23001;SDS011;11667;51.706;4.856;2023-03-08T00:39:15;49.98;;;21.48;;
23001;SDS011;11667;51.706;4.856;2023-03-08T00:41:44;50.15;;;21.68;;
23001;SDS011;11667;51.706;4.856;2023-03-08T00:44:13;45.92;;;21.33;;
23001;SDS011;11667;51.706;4.856;2023-03-08T00:46:42;53.48;;;21.60;;
23001;SDS011;11667;51.706;4.856;2023-03-08T00:49:12;52.60;;;21.85;;
23001;SDS011;11667;51.706;4.856;2023-03-08T00:51:42;60.30;;;23.65;;
23001;SDS011;11667;51.706;4.856;2023-03-08T00:54:11;52.67;;;22.80;;
23001;SDS011;11667;51.706;4.856;2023-03-08T00:56:40;55.52;;;22.85;;
23001;SDS011;11667;51.706;4.856;2023-03-08T00:59:09;62.05;;;24.63;;
23001;SDS011;11667;51.706;4.856;2023-03-08T01:01:39;68.45;;;27.37;;
23001;SDS011;11667;51.706;4.856;2023-03-08T01:04:09;66.40;;;27.50;;
23001;SDS011;11667;51.706;4.856;2023-03-08T01:06:39;74.90;;;29.23;;
23001;SDS011;11667;51.706;4.856;2023-03-08T01:09:10;76.02;;;29.70;;
23001;SDS011;11667;51.706;4.856;2023-03-08T01:11:40;75.25;;;29.75;;
23001;SDS011;11667;51.706;4.856;2023-03-08T01:16:40;80.90;;;30.35;;
23001;SDS011;11667;51.706;4.856;2023-03-08T01:19:10;81.37;;;31.00;;
23001;SDS011;11667;51.706;4.856;2023-03-08T01:21:41;83.72;;;32.93;;
23001;SDS011;11667;51.706;4.856;2023-03-08T01:24:10;88.03;;;34.05;;
23001;SDS011;11667;51.706;4.856;2023-03-08T01:26:40;81.17;;;32.15;;
23001;SDS011;11667;51.706;4.856;2023-03-08T01:29:09;84.30;;;33.18;;
23001;SDS011;11667;51.706;4.856;2023-03-08T01:31:39;97.08;;;34.27;;
23001;SDS011;11667;51.706;4.856;2023-03-08T01:34:08;87.70;;;34.65;;
23001;SDS011;11667;51.706;4.856;2023-03-08T01:36:37;87.10;;;33.98;;
23001;SDS011;11667;51.706;4.856;2023-03-08T01:39:07;88.03;;;33.42;;
23001;SDS011;11667;51.706;4.856;2023-03-08T01:41:37;90.83;;;35.00;;
23001;SDS011;11667;51.706;4.856;2023-03-08T01:44:09;85.70;;;32.67;;
23001;SDS011;11667;51.706;4.856;2023-03-08T01:46:44;97.02;;;35.23;;
23001;SDS011;11667;51.706;4.856;2023-03-08T01:51:52;98.35;;;36.28;;
23001;SDS011;11667;51.706;4.856;2023-03-08T01:57:17;102.10;;;36.48;;
23001;SDS011;11667;51.706;4.856;2023-03-08T01:59:49;107.37;;;38.10;;
23001;SDS011;11667;51.706;4.856;2023-03-08T02:02:21;104.87;;;39.55;;
23001;SDS011;11667;51.706;4.856;2023-03-08T02:04:53;104.20;;;40.45;;
23001;SDS011;11667;51.706;4.856;2023-03-08T02:07:23;111.45;;;41.40;;
23001;SDS011;11667;51.706;4.856;2023-03-08T02:09:53;117.40;;;39.65;;
23001;SDS011;11667;51.706;4.856;2023-03-08T02:12:22;107.32;;;40.45;;
23001;SDS011;11667;51.706;4.856;2023-03-08T02:14:52;108.25;;;39.50;;
23001;SDS011;11667;51.706;4.856;2023-03-08T02:17:21;110.78;;;41.55;;
23001;SDS011;11667;51.706;4.856;2023-03-08T02:19:59;113.12;;;41.48;;
23001;SDS011;11667;51.706;4.856;2023-03-08T02:22:29;109.72;;;41.33;;
23001;SDS011;11667;51.706;4.856;2023-03-08T02:24:58;107.60;;;40.90;;
23001;SDS011;11667;51.706;4.856;2023-03-08T02:27:28;109.97;;;42.43;;
23001;SDS011;11667;51.706;4.856;2023-03-08T02:29:59;113.08;;;44.15;;
23001;SDS011;11667;51.706;4.856;2023-03-08T02:32:30;116.28;;;45.98;;
23001;SDS011;11667;51.706;4.856;2023-03-08T02:35:00;126.35;;;45.50;;
23001;SDS011;11667;51.706;4.856;2023-03-08T02:37:30;120.17;;;46.18;;
23001;SDS011;11667;51.706;4.856;2023-03-08T02:40:01;121.57;;;45.33;;
23001;SDS011;11667;51.706;4.856;2023-03-08T02:42:31;129.20;;;46.50;;
23001;SDS011;11667;51.706;4.856;2023-03-08T02:45:00;123.65;;;46.40;;
23001;SDS011;11667;51.706;4.856;2023-03-08T02:47:31;130.18;;;46.20;;
23001;SDS011;11667;51.706;4.856;2023-03-08T02:50:00;119.08;;;46.05;;
23001;SDS011;11667;51.706;4.856;2023-03-08T02:52:30;136.28;;;46.80;;
23001;SDS011;11667;51.706;4.856;2023-03-08T02:54:59;131.67;;;48.45;;
23001;SDS011;11667;51.706;4.856;2023-03-08T02:57:28;127.40;;;47.48;;
23001;SDS011;11667;51.706;4.856;2023-03-08T02:59:58;138.15;;;50.03;;
23001;SDS011;11667;51.706;4.856;2023-03-08T03:02:27;129.90;;;49.00;;
23001;SDS011;11667;51.706;4.856;2023-03-08T03:04:57;127.38;;;47.10;;
23001;SDS011;11667;51.706;4.856;2023-03-08T03:07:27;121.82;;;46.35;;
23001;SDS011;11667;51.706;4.856;2023-03-08T03:09:56;127.58;;;47.03;;
23001;SDS011;11667;51.706;4.856;2023-03-08T03:12:26;117.03;;;45.78;;
23001;SDS011;11667;51.706;4.856;2023-03-08T03:14:55;134.55;;;48.65;;
23001;SDS011;11667;51.706;4.856;2023-03-08T03:17:24;142.82;;;48.30;;
23001;SDS011;11667;51.706;4.856;2023-03-08T03:19:54;123.82;;;47.35;;
23001;SDS011;11667;51.706;4.856;2023-03-08T03:22:23;155.82;;;50.48;;
23001;SDS011;11667;51.706;4.856;2023-03-08T03:24:53;155.50;;;51.15;;
23001;SDS011;11667;51.706;4.856;2023-03-08T03:27:22;159.12;;;51.30;;
23001;SDS011;11667;51.706;4.856;2023-03-08T03:29:52;162.07;;;50.55;;
23001;SDS011;11667;51.706;4.856;2023-03-08T03:32:22;196.45;;;50.60;;
23001;SDS011;11667;51.706;4.856;2023-03-08T03:34:52;211.90;;;52.08;;
23001;SDS011;11667;51.706;4.856;2023-03-08T03:37:21;199.85;;;52.38;;
23001;SDS011;11667;51.706;4.856;2023-03-08T03:39:51;213.35;;;50.83;;
23001;SDS011;11667;51.706;4.856;2023-03-08T03:42:20;308.68;;;51.25;;
23001;SDS011;11667;51.706;4.856;2023-03-08T03:44:51;288.35;;;50.80;;
23001;SDS011;11667;51.706;4.856;2023-03-08T03:47:21;280.52;;;50.15;;
23001;SDS011;11667;51.706;4.856;2023-03-08T03:49:52;353.67;;;49.98;;
23001;SDS011;11667;51.706;4.856;2023-03-08T03:52:22;379.98;;;51.33;;
23001;SDS011;11667;51.706;4.856;2023-03-08T03:54:55;413.10;;;50.00;;
23001;SDS011;11667;51.706;4.856;2023-03-08T03:57:25;387.55;;;49.13;;
23001;SDS011;11667;51.706;4.856;2023-03-08T03:59:55;366.38;;;48.38;;
23001;SDS011;11667;51.706;4.856;2023-03-08T04:02:25;372.93;;;47.65;;
23001;SDS011;11667;51.706;4.856;2023-03-08T04:04:57;398.05;;;47.83;;
23001;SDS011;11667;51.706;4.856;2023-03-08T04:07:28;482.45;;;48.92;;
23001;SDS011;11667;51.706;4.856;2023-03-08T04:09:59;381.32;;;47.75;;
23001;SDS011;11667;51.706;4.856;2023-03-08T04:12:29;460.02;;;47.98;;
23001;SDS011;11667;51.706;4.856;2023-03-08T04:14:58;521.85;;;51.60;;
23001;SDS011;11667;51.706;4.856;2023-03-08T04:17:29;569.35;;;51.83;;
23001;SDS011;11667;51.706;4.856;2023-03-08T04:19:59;607.90;;;52.03;;
23001;SDS011;11667;51.706;4.856;2023-03-08T04:22:30;677.65;;;54.23;;
23001;SDS011;11667;51.706;4.856;2023-03-08T04:25:01;623.90;;;52.08;;
23001;SDS011;11667;51.706;4.856;2023-03-08T04:27:32;600.65;;;53.20;;
23001;SDS011;11667;51.706;4.856;2023-03-08T04:30:03;570.17;;;52.27;;
23001;SDS011;11667;51.706;4.856;2023-03-08T04:32:34;523.17;;;52.45;;
23001;SDS011;11667;51.706;4.856;2023-03-08T04:35:04;685.78;;;53.68;;
23001;SDS011;11667;51.706;4.856;2023-03-08T04:37:34;470.92;;;49.33;;
23001;SDS011;11667;51.706;4.856;2023-03-08T04:40:06;487.75;;;51.92;;
23001;SDS011;11667;51.706;4.856;2023-03-08T04:42:38;386.10;;;48.50;;
23001;SDS011;11667;51.706;4.856;2023-03-08T04:45:08;451.22;;;51.28;;
23001;SDS011;11667;51.706;4.856;2023-03-08T04:47:38;602.17;;;53.02;;
23001;SDS011;11667;51.706;4.856;2023-03-08T04:50:09;624.80;;;53.42;;
23001;SDS011;11667;51.706;4.856;2023-03-08T04:52:39;496.20;;;49.00;;
23001;SDS011;11667;51.706;4.856;2023-03-08T04:55:09;727.45;;;56.50;;
23001;SDS011;11667;51.706;4.856;2023-03-08T04:57:39;695.73;;;53.75;;
23001;SDS011;11667;51.706;4.856;2023-03-08T05:00:08;603.20;;;53.15;;
23001;SDS011;11667;51.706;4.856;2023-03-08T05:02:40;379.90;;;38.63;;
23001;SDS011;11667;51.706;4.856;2023-03-08T05:05:11;465.75;;;51.10;;
23001;SDS011;11667;51.706;4.856;2023-03-08T05:07:40;455.63;;;53.23;;
23001;SDS011;11667;51.706;4.856;2023-03-08T05:10:10;493.60;;;51.30;;
23001;SDS011;11667;51.706;4.856;2023-03-08T05:12:40;532.80;;;52.53;;
23001;SDS011;11667;51.706;4.856;2023-03-08T05:15:09;423.60;;;50.85;;
23001;SDS011;11667;51.706;4.856;2023-03-08T05:17:39;648.20;;;55.55;;
23001;SDS011;11667;51.706;4.856;2023-03-08T05:20:09;345.42;;;50.40;;
23001;SDS011;11667;51.706;4.856;2023-03-08T05:22:40;366.73;;;52.05;;
23001;SDS011;11667;51.706;4.856;2023-03-08T05:25:11;396.05;;;49.80;;
23001;SDS011;11667;51.706;4.856;2023-03-08T05:27:41;380.65;;;49.53;;
23001;SDS011;11667;51.706;4.856;2023-03-08T05:30:10;354.32;;;48.85;;
23001;SDS011;11667;51.706;4.856;2023-03-08T05:32:40;485.55;;;52.30;;
23001;SDS011;11667;51.706;4.856;2023-03-08T05:35:10;372.73;;;48.68;;
23001;SDS011;11667;51.706;4.856;2023-03-08T05:37:40;359.83;;;46.88;;
23001;SDS011;11667;51.706;4.856;2023-03-08T05:40:10;323.62;;;46.10;;
23001;SDS011;11667;51.706;4.856;2023-03-08T05:42:41;431.32;;;47.58;;
23001;SDS011;11667;51.706;4.856;2023-03-08T05:45:12;367.32;;;45.17;;
23001;SDS011;11667;51.706;4.856;2023-03-08T05:47:42;275.20;;;43.95;;
23001;SDS011;11667;51.706;4.856;2023-03-08T05:50:12;358.73;;;45.95;;
23001;SDS011;11667;51.706;4.856;2023-03-08T05:52:42;226.22;;;42.55;;
23001;SDS011;11667;51.706;4.856;2023-03-08T05:55:13;235.93;;;44.53;;
23001;SDS011;11667;51.706;4.856;2023-03-08T05:57:43;270.35;;;42.58;;
23001;SDS011;11667;51.706;4.856;2023-03-08T06:00:14;242.10;;;42.98;;
23001;SDS011;11667;51.706;4.856;2023-03-08T06:02:45;193.37;;;42.85;;
23001;SDS011;11667;51.706;4.856;2023-03-08T06:05:14;175.78;;;40.03;;
23001;SDS011;11667;51.706;4.856;2023-03-08T06:07:45;170.22;;;40.98;;
23001;SDS011;11667;51.706;4.856;2023-03-08T06:10:14;167.98;;;40.95;;
23001;SDS011;11667;51.706;4.856;2023-03-08T06:12:45;188.52;;;41.98;;
23001;SDS011;11667;51.706;4.856;2023-03-08T06:15:15;176.82;;;41.90;;
23001;SDS011;11667;51.706;4.856;2023-03-08T06:17:44;165.80;;;40.60;;
23001;SDS011;11667;51.706;4.856;2023-03-08T06:20:15;167.95;;;41.63;;
23001;SDS011;11667;51.706;4.856;2023-03-08T06:22:46;157.22;;;41.77;;
23001;SDS011;11667;51.706;4.856;2023-03-08T06:25:16;163.52;;;38.80;;
23001;SDS011;11667;51.706;4.856;2023-03-08T06:27:47;146.28;;;38.25;;
23001;SDS011;11667;51.706;4.856;2023-03-08T06:30:30;148.35;;;38.75;;
23001;SDS011;11667;51.706;4.856;2023-03-08T06:33:01;137.37;;;34.83;;
23001;SDS011;11667;51.706;4.856;2023-03-08T06:35:31;136.40;;;36.50;;
23001;SDS011;11667;51.706;4.856;2023-03-08T06:38:01;137.97;;;34.13;;
23001;SDS011;11667;51.706;4.856;2023-03-08T06:40:31;113.77;;;31.40;;
23001;SDS011;11667;51.706;4.856;2023-03-08T06:43:00;117.00;;;31.00;;
23001;SDS011;11667;51.706;4.856;2023-03-08T06:45:31;106.75;;;30.10;;
23001;SDS011;11667;51.706;4.856;2023-03-08T06:48:00;111.68;;;28.52;;
23001;SDS011;11667;51.706;4.856;2023-03-08T06:50:31;97.02;;;28.15;;
23001;SDS011;11667;51.706;4.856;2023-03-08T06:53:01;94.55;;;24.82;;
23001;SDS011;11667;51.706;4.856;2023-03-08T06:55:38;85.53;;;23.98;;
23001;SDS011;11667;51.706;4.856;2023-03-08T06:58:08;77.85;;;22.22;;
23001;SDS011;11667;51.706;4.856;2023-03-08T07:00:38;85.95;;;23.42;;
23001;SDS011;11667;51.706;4.856;2023-03-08T07:03:07;80.03;;;22.25;;
23001;SDS011;11667;51.706;4.856;2023-03-08T07:05:37;70.15;;;20.45;;
23001;SDS011;11667;51.706;4.856;2023-03-08T07:08:07;76.02;;;21.00;;
23001;SDS011;11667;51.706;4.856;2023-03-08T07:10:36;70.03;;;20.43;;
23001;SDS011;11667;51.706;4.856;2023-03-08T07:13:05;68.20;;;20.52;;
23001;SDS011;11667;51.706;4.856;2023-03-08T07:15:37;69.25;;;19.77;;
23001;SDS011;11667;51.706;4.856;2023-03-08T07:18:07;64.90;;;19.85;;
23001;SDS011;11667;51.706;4.856;2023-03-08T07:20:36;74.92;;;21.82;;
23001;SDS011;11667;51.706;4.856;2023-03-08T07:23:05;73.67;;;22.02;;
23001;SDS011;11667;51.706;4.856;2023-03-08T07:25:36;79.00;;;22.27;;
23001;SDS011;11667;51.706;4.856;2023-03-08T07:28:09;73.17;;;21.02;;
23001;SDS011;11667;51.706;4.856;2023-03-08T07:30:38;75.08;;;23.32;;
23001;SDS011;11667;51.706;4.856;2023-03-08T07:33:10;73.65;;;24.00;;
23001;SDS011;11667;51.706;4.856;2023-03-08T07:35:39;75.50;;;22.75;;
23001;SDS011;11667;51.706;4.856;2023-03-08T07:38:10;68.92;;;22.17;;
23001;SDS011;11667;51.706;4.856;2023-03-08T07:40:39;76.55;;;21.95;;
23001;SDS011;11667;51.706;4.856;2023-03-08T07:43:09;72.32;;;22.75;;
23001;SDS011;11667;51.706;4.856;2023-03-08T07:45:47;72.47;;;22.32;;
23001;SDS011;11667;51.706;4.856;2023-03-08T07:48:16;67.35;;;20.35;;
23001;SDS011;11667;51.706;4.856;2023-03-08T07:50:45;61.25;;;20.40;;
23001;SDS011;11667;51.706;4.856;2023-03-08T07:53:15;60.85;;;20.23;;
23001;SDS011;11667;51.706;4.856;2023-03-08T07:55:45;63.15;;;20.92;;
23001;SDS011;11667;51.706;4.856;2023-03-08T07:58:14;59.80;;;20.12;;
23001;SDS011;11667;51.706;4.856;2023-03-08T08:00:43;66.80;;;19.98;;
23001;SDS011;11667;51.706;4.856;2023-03-08T08:03:12;60.85;;;20.50;;
23001;SDS011;11667;51.706;4.856;2023-03-08T08:05:42;59.48;;;19.67;;
23001;SDS011;11667;51.706;4.856;2023-03-08T08:08:11;59.30;;;19.90;;
23001;SDS011;11667;51.706;4.856;2023-03-08T08:10:41;52.43;;;19.67;;
23001;SDS011;11667;51.706;4.856;2023-03-08T08:13:10;53.15;;;19.27;;
23001;SDS011;11667;51.706;4.856;2023-03-08T08:15:40;57.10;;;19.15;;
23001;SDS011;11667;51.706;4.856;2023-03-08T08:18:09;61.02;;;21.25;;
23001;SDS011;11667;51.706;4.856;2023-03-08T08:20:38;51.65;;;19.27;;
23001;SDS011;11667;51.706;4.856;2023-03-08T08:23:08;52.48;;;18.82;;
23001;SDS011;11667;51.706;4.856;2023-03-08T08:25:38;54.60;;;19.90;;
23001;SDS011;11667;51.706;4.856;2023-03-08T08:28:07;52.53;;;18.25;;
23001;SDS011;11667;51.706;4.856;2023-03-08T08:30:36;53.33;;;19.23;;
23001;SDS011;11667;51.706;4.856;2023-03-08T08:33:05;51.73;;;20.27;;
23001;SDS011;11667;51.706;4.856;2023-03-08T08:35:38;56.70;;;20.27;;
23001;SDS011;11667;51.706;4.856;2023-03-08T08:38:10;51.48;;;19.40;;
23001;SDS011;11667;51.706;4.856;2023-03-08T08:40:39;46.83;;;18.20;;
23001;SDS011;11667;51.706;4.856;2023-03-08T08:43:08;47.60;;;17.45;;
23001;SDS011;11667;51.706;4.856;2023-03-08T08:45:41;50.60;;;16.82;;
23001;SDS011;11667;51.706;4.856;2023-03-08T08:48:12;50.17;;;17.98;;
23001;SDS011;11667;51.706;4.856;2023-03-08T08:50:42;51.77;;;17.20;;
23001;SDS011;11667;51.706;4.856;2023-03-08T08:53:11;53.28;;;18.12;;
23001;SDS011;11667;51.706;4.856;2023-03-08T08:55:40;48.13;;;17.40;;
23001;SDS011;11667;51.706;4.856;2023-03-08T08:58:11;47.65;;;17.45;;
23001;SDS011;11667;51.706;4.856;2023-03-08T09:00:41;48.42;;;16.62;;
23001;SDS011;11667;51.706;4.856;2023-03-08T09:03:11;45.50;;;16.10;;
23001;SDS011;11667;51.706;4.856;2023-03-08T09:05:42;42.78;;;16.17;;
23001;SDS011;11667;51.706;4.856;2023-03-08T09:08:12;46.98;;;16.32;;
23001;SDS011;11667;51.706;4.856;2023-03-08T09:10:41;38.28;;;14.55;;
23001;SDS011;11667;51.706;4.856;2023-03-08T09:13:11;37.30;;;14.15;;
23001;SDS011;11667;51.706;4.856;2023-03-08T09:15:40;43.10;;;14.75;;
23001;SDS011;11667;51.706;4.856;2023-03-08T09:18:10;41.42;;;14.05;;
23001;SDS011;11667;51.706;4.856;2023-03-08T09:20:39;37.20;;;13.80;;
23001;SDS011;11667;51.706;4.856;2023-03-08T09:23:08;39.55;;;13.95;;
23001;SDS011;11667;51.706;4.856;2023-03-08T09:25:37;39.95;;;14.73;;
23001;SDS011;11667;51.706;4.856;2023-03-08T09:28:07;38.88;;;15.28;;
23001;SDS011;11667;51.706;4.856;2023-03-08T09:30:36;41.30;;;15.55;;
23001;SDS011;11667;51.706;4.856;2023-03-08T09:33:06;38.08;;;14.03;;
23001;SDS011;11667;51.706;4.856;2023-03-08T09:35:35;44.60;;;15.65;;
23001;SDS011;11667;51.706;4.856;2023-03-08T09:38:05;46.65;;;15.75;;
23001;SDS011;11667;51.706;4.856;2023-03-08T09:40:39;47.33;;;16.02;;
23001;SDS011;11667;51.706;4.856;2023-03-08T09:45:38;43.52;;;14.63;;
23001;SDS011;11667;51.706;4.856;2023-03-08T09:48:16;42.10;;;15.58;;
23001;SDS011;11667;51.706;4.856;2023-03-08T09:50:55;37.45;;;15.10;;
23001;SDS011;11667;51.706;4.856;2023-03-08T09:56:13;37.78;;;14.93;;
23001;SDS011;11667;51.706;4.856;2023-03-08T10:09:29;39.42;;;13.98;;
23001;SDS011;11667;51.706;4.856;2023-03-08T10:12:01;36.30;;;13.32;;
23001;SDS011;11667;51.706;4.856;2023-03-08T10:14:34;38.13;;;13.13;;
23001;SDS011;11667;51.706;4.856;2023-03-08T10:19:44;34.48;;;13.55;;
23001;SDS011;11667;51.706;4.856;2023-03-08T10:24:48;36.17;;;13.70;;
23001;SDS011;11667;51.706;4.856;2023-03-08T10:27:19;45.00;;;15.70;;
23001;SDS011;11667;51.706;4.856;2023-03-08T10:29:56;41.13;;;14.60;;
23001;SDS011;11667;51.706;4.856;2023-03-08T10:32:26;43.98;;;15.80;;
23001;SDS011;11667;51.706;4.856;2023-03-08T10:35:00;45.83;;;16.67;;
23001;SDS011;11667;51.706;4.856;2023-03-08T10:37:31;39.73;;;16.48;;
23001;SDS011;11667;51.706;4.856;2023-03-08T10:40:01;44.42;;;16.30;;
23001;SDS011;11667;51.706;4.856;2023-03-08T10:42:35;41.90;;;16.60;;
23001;SDS011;11667;51.706;4.856;2023-03-08T10:45:12;41.75;;;16.35;;
23001;SDS011;11667;51.706;4.856;2023-03-08T10:50:25;42.00;;;16.37;;
23001;SDS011;11667;51.706;4.856;2023-03-08T10:53:05;40.78;;;17.23;;
23001;SDS011;11667;51.706;4.856;2023-03-08T10:55:45;39.10;;;16.73;;
23001;SDS011;11667;51.706;4.856;2023-03-08T10:58:29;38.35;;;15.48;;
23001;SDS011;11667;51.706;4.856;2023-03-08T11:01:21;38.20;;;16.45;;
23001;SDS011;11667;51.706;4.856;2023-03-08T11:04:02;44.30;;;16.62;;
23001;SDS011;11667;51.706;4.856;2023-03-08T11:06:33;39.65;;;16.12;;
23001;SDS011;11667;51.706;4.856;2023-03-08T11:09:03;38.33;;;16.25;;
23001;SDS011;11667;51.706;4.856;2023-03-08T11:11:41;39.48;;;16.42;;
23001;SDS011;11667;51.706;4.856;2023-03-08T11:14:10;36.68;;;15.63;;
23001;SDS011;11667;51.706;4.856;2023-03-08T11:22:23;42.23;;;17.85;;
23001;SDS011;11667;51.706;4.856;2023-03-08T11:25:10;38.53;;;16.73;;
23001;SDS011;11667;51.706;4.856;2023-03-08T11:27:52;40.55;;;15.53;;
23001;SDS011;11667;51.706;4.856;2023-03-08T11:39:05;30.02;;;13.45;;
23001;SDS011;11667;51.706;4.856;2023-03-08T11:41:48;31.70;;;13.78;;
23001;SDS011;11667;51.706;4.856;2023-03-08T11:50:21;37.08;;;15.93;;
23001;SDS011;11667;51.706;4.856;2023-03-08T11:53:03;34.10;;;16.10;;
23001;SDS011;11667;51.706;4.856;2023-03-08T11:55:37;33.73;;;16.35;;
23001;SDS011;11667;51.706;4.856;2023-03-08T12:01:00;36.03;;;16.67;;
23001;SDS011;11667;51.706;4.856;2023-03-08T12:03:35;31.77;;;15.78;;
23001;SDS011;11667;51.706;4.856;2023-03-08T12:06:09;29.95;;;14.38;;
23001;SDS011;11667;51.706;4.856;2023-03-08T12:08:53;28.87;;;13.85;;
23001;SDS011;11667;51.706;4.856;2023-03-08T12:11:39;27.27;;;13.68;;
23001;SDS011;11667;51.706;4.856;2023-03-08T12:14:11;25.00;;;12.85;;
23001;SDS011;11667;51.706;4.856;2023-03-08T12:16:46;29.98;;;12.80;;
23001;SDS011;11667;51.706;4.856;2023-03-08T12:30:12;25.97;;;12.78;;
23001;SDS011;11667;51.706;4.856;2023-03-08T12:32:42;27.10;;;13.72;;
23001;SDS011;11667;51.706;4.856;2023-03-08T12:38:03;26.50;;;14.03;;
23001;SDS011;11667;51.706;4.856;2023-03-08T12:46:12;25.60;;;13.03;;
23001;SDS011;11667;51.706;4.856;2023-03-08T12:56:23;25.05;;;11.20;;
23001;SDS011;11667;51.706;4.856;2023-03-08T12:59:23;27.60;;;11.95;;
23001;SDS011;11667;51.706;4.856;2023-03-08T13:01:43;24.02;;;11.78;;
23001;SDS011;11667;51.706;4.856;2023-03-08T13:07:11;25.65;;;12.75;;
23001;SDS011;11667;51.706;4.856;2023-03-08T13:14:58;26.35;;;12.65;;
23001;SDS011;11667;51.706;4.856;2023-03-08T13:22:49;24.00;;;10.78;;
23001;SDS011;11667;51.706;4.856;2023-03-08T13:28:11;22.35;;;11.25;;
23001;SDS011;11667;51.706;4.856;2023-03-08T13:33:21;22.65;;;10.93;;
23001;SDS011;11667;51.706;4.856;2023-03-08T13:38:37;23.40;;;11.38;;
23001;SDS011;11667;51.706;4.856;2023-03-08T13:41:06;26.20;;;12.20;;
23001;SDS011;11667;51.706;4.856;2023-03-08T13:43:36;20.70;;;10.58;;
23001;SDS011;11667;51.706;4.856;2023-03-08T13:46:11;22.42;;;10.80;;
23001;SDS011;11667;51.706;4.856;2023-03-08T13:48:41;19.92;;;9.43;;
23001;SDS011;11667;51.706;4.856;2023-03-08T13:51:11;21.27;;;9.90;;
23001;SDS011;11667;51.706;4.856;2023-03-08T13:53:44;20.37;;;10.00;;
23001;SDS011;11667;51.706;4.856;2023-03-08T13:56:25;18.02;;;9.60;;
23001;SDS011;11667;51.706;4.856;2023-03-08T13:58:55;19.20;;;9.50;;
23001;SDS011;11667;51.706;4.856;2023-03-08T14:01:25;19.82;;;10.18;;
23001;SDS011;11667;51.706;4.856;2023-03-08T14:03:55;23.65;;;9.80;;
23001;SDS011;11667;51.706;4.856;2023-03-08T14:06:30;17.32;;;8.60;;
23001;SDS011;11667;51.706;4.856;2023-03-08T14:09:03;16.40;;;8.00;;
23001;SDS011;11667;51.706;4.856;2023-03-08T14:11:34;18.90;;;9.38;;
23001;SDS011;11667;51.706;4.856;2023-03-08T14:14:06;16.62;;;8.48;;
23001;SDS011;11667;51.706;4.856;2023-03-08T14:16:38;20.92;;;10.68;;
23001;SDS011;11667;51.706;4.856;2023-03-08T14:19:10;19.87;;;11.18;;
23001;SDS011;11667;51.706;4.856;2023-03-08T14:21:57;16.10;;;8.33;;
23001;SDS011;11667;51.706;4.856;2023-03-08T14:24:33;19.20;;;9.40;;
23001;SDS011;11667;51.706;4.856;2023-03-08T14:27:04;16.82;;;8.83;;
23001;SDS011;11667;51.706;4.856;2023-03-08T14:29:35;16.05;;;8.33;;
23001;SDS011;11667;51.706;4.856;2023-03-08T14:32:21;16.07;;;8.65;;
23001;SDS011;11667;51.706;4.856;2023-03-08T14:34:45;17.12;;;9.55;;
23001;SDS011;11667;51.706;4.856;2023-03-08T14:37:23;17.02;;;9.20;;
23001;SDS011;11667;51.706;4.856;2023-03-08T14:42:54;16.87;;;8.40;;
23001;SDS011;11667;51.706;4.856;2023-03-08T14:45:31;20.05;;;10.10;;
23001;SDS011;11667;51.706;4.856;2023-03-08T14:48:13;16.00;;;9.33;;
23001;SDS011;11667;51.706;4.856;2023-03-08T14:50:50;17.98;;;8.80;;
23001;SDS011;11667;51.706;4.856;2023-03-08T14:53:26;18.70;;;8.33;;
23001;SDS011;11667;51.706;4.856;2023-03-08T14:56:06;17.73;;;8.63;;
23001;SDS011;11667;51.706;4.856;2023-03-08T14:58:40;21.80;;;10.43;;
23001;SDS011;11667;51.706;4.856;2023-03-08T15:01:25;18.15;;;9.38;;
23001;SDS011;11667;51.706;4.856;2023-03-08T15:03:56;20.68;;;9.45;;
23001;SDS011;11667;51.706;4.856;2023-03-08T15:06:30;16.30;;;9.08;;
23001;SDS011;11667;51.706;4.856;2023-03-08T15:09:02;18.00;;;10.40;;
23001;SDS011;11667;51.706;4.856;2023-03-08T15:11:33;20.62;;;11.57;;
23001;SDS011;11667;51.706;4.856;2023-03-08T15:14:03;17.15;;;9.55;;
23001;SDS011;11667;51.706;4.856;2023-03-08T15:16:33;18.50;;;9.70;;
23001;SDS011;11667;51.706;4.856;2023-03-08T15:19:02;22.80;;;10.38;;
23001;SDS011;11667;51.706;4.856;2023-03-08T15:21:32;25.57;;;11.53;;
23001;SDS011;11667;51.706;4.856;2023-03-08T15:24:02;24.98;;;11.93;;
23001;SDS011;11667;51.706;4.856;2023-03-08T15:26:31;17.77;;;9.98;;
23001;SDS011;11667;51.706;4.856;2023-03-08T15:29:01;17.57;;;9.50;;
23001;SDS011;11667;51.706;4.856;2023-03-08T15:31:30;23.00;;;10.13;;
23001;SDS011;11667;51.706;4.856;2023-03-08T15:33:59;22.87;;;11.60;;
23001;SDS011;11667;51.706;4.856;2023-03-08T15:36:29;21.17;;;10.50;;
23001;SDS011;11667;51.706;4.856;2023-03-08T15:39:00;20.65;;;9.63;;
23001;SDS011;11667;51.706;4.856;2023-03-08T15:41:31;18.82;;;9.28;;
23001;SDS011;11667;51.706;4.856;2023-03-08T15:44:00;20.40;;;9.65;;
23001;SDS011;11667;51.706;4.856;2023-03-08T15:46:29;22.22;;;10.78;;
23001;SDS011;11667;51.706;4.856;2023-03-08T15:48:59;24.23;;;10.75;;
23001;SDS011;11667;51.706;4.856;2023-03-08T15:51:37;22.25;;;10.28;;
23001;SDS011;11667;51.706;4.856;2023-03-08T15:54:03;20.20;;;9.75;;
23001;SDS011;11667;51.706;4.856;2023-03-08T15:56:33;20.62;;;10.08;;
23001;SDS011;11667;51.706;4.856;2023-03-08T15:59:02;20.62;;;9.48;;
23001;SDS011;11667;51.706;4.856;2023-03-08T16:01:31;19.02;;;9.55;;
23001;SDS011;11667;51.706;4.856;2023-03-08T16:04:01;21.27;;;10.18;;
23001;SDS011;11667;51.706;4.856;2023-03-08T16:06:30;22.32;;;10.75;;
23001;SDS011;11667;51.706;4.856;2023-03-08T16:09:00;23.95;;;11.43;;
23001;SDS011;11667;51.706;4.856;2023-03-08T16:11:29;25.97;;;12.73;;
23001;SDS011;11667;51.706;4.856;2023-03-08T16:13:59;35.25;;;14.87;;
23001;SDS011;11667;51.706;4.856;2023-03-08T16:16:29;35.68;;;15.23;;
23001;SDS011;11667;51.706;4.856;2023-03-08T16:19:00;32.38;;;15.53;;
23001;SDS011;11667;51.706;4.856;2023-03-08T16:21:29;39.23;;;15.20;;
23001;SDS011;11667;51.706;4.856;2023-03-08T16:23:58;29.67;;;12.80;;
23001;SDS011;11667;51.706;4.856;2023-03-08T16:26:29;34.40;;;15.03;;
23001;SDS011;11667;51.706;4.856;2023-03-08T16:28:58;33.48;;;14.73;;